Time;durP1;ratioP1;P1;durP2;ratioP2;P2;SDS_P1;SDS_P2;PMS_P1;PMS_P2;Temp;Humidity;BMP_temperature;BMP_pressure;BME280_temperature;BME280_humidity;BME280_pressure;Samples;Min_cycle;Max_cycle;Signal;HPM_P1;HPM_P2
2021/04/03 00:00:37;;;;;;;0.33;0.33;;;;;;;1.86;100.00;99931.30;1785285;80;21175;-44
2021/04/03 00:03:06;;;;;;;0.10;0.10;;;;;;;1.85;100.00;99933.69;1785264;80;21102;-45
2021/04/03 00:05:34;;;;;;;0.00;0.00;;;;;;;1.84;100.00;99934.75;1774237;80;21141;-44
2021/04/03 00:08:04;;;;;;;0.20;0.20;;;;;;;1.86;100.00;99938.57;1753933;81;21584;-45
2021/04/03 00:10:47;;;;;;;0.00;0.00;;;;;;;1.86;100.00;99940.73;1754004;81;21150;-45
2021/04/03 00:13:17;;;;;;;0.00;0.00;;;;;;;1.87;100.00;99945.59;1754014;81;21620;-45
2021/04/03 00:15:45;;;;;;;0.25;0.25;;;;;;;1.87;100.00;99950.44;1783718;80;21157;-45
2021/04/03 00:18:16;;;;;;;0.08;0.08;;;;;;;1.87;100.00;99950.44;1785181;80;21410;-44
2021/04/03 00:23:24;;;;;;;0.40;0.40;;;;;;;1.98;100.00;99943.44;1841984;76;29609;-44
2021/04/03 00:25:52;;;;;;;0.15;0.15;;;;;;;1.98;100.00;99936.70;1722089;83;21110;-45
2021/04/03 00:28:21;;;;;;;0.10;0.10;;;;;;;2.04;100.00;99945.70;1691358;81;21817;-44
2021/04/03 00:30:48;;;;;;;0.10;0.10;;;;;;;2.08;100.00;99943.66;1724685;83;21549;-45
2021/04/03 00:33:16;;;;;;;0.20;0.20;;;;;;;2.14;100.00;99942.70;1733007;81;21130;-45
2021/04/03 00:35:46;;;;;;;0.10;0.10;;;;;;;2.19;100.00;99945.22;1733105;82;21105;-44
2021/04/03 00:38:15;;;;;;;0.08;0.08;;;;;;;2.21;100.00;99947.97;1731520;81;21174;-45
2021/04/03 00:40:46;;;;;;;0.30;0.30;;;;;;;2.22;100.00;99950.13;1703792;82;21158;-45
2021/04/03 00:43:19;;;;;;;0.00;0.00;;;;;;;2.23;100.00;99953.14;1703436;84;21181;-45
2021/04/03 00:45:47;;;;;;;0.00;0.00;;;;;;;2.22;100.00;99944.74;1703721;84;21130;-45
2021/04/03 00:48:15;;;;;;;0.30;0.30;;;;;;;2.18;100.00;99947.11;1689662;81;21524;-45
2021/04/03 00:50:46;;;;;;;1.67;1.57;;;;;;;2.12;100.00;99951.54;1733029;82;21671;-45
2021/04/03 00:53:16;;;;;;;0.50;0.50;;;;;;;2.10;100.00;99949.63;1732980;81;21165;-45
2021/04/03 00:55:46;;;;;;;0.10;0.10;;;;;;;2.09;100.00;99953.37;1733017;82;21141;-45
2021/04/03 00:58:16;;;;;;;0.20;0.20;;;;;;;2.07;100.00;99944.69;1717804;82;21160;-46
2021/04/03 01:00:45;;;;;;;0.10;0.10;;;;;;;2.05;100.00;99950.88;1673740;84;21145;-44
2021/04/03 01:03:13;;;;;;;0.00;0.00;;;;;;;2.02;100.00;99955.89;1703870;84;21606;-44
2021/04/03 01:05:42;;;;;;;0.05;0.05;;;;;;;2.00;100.00;99949.38;1712519;82;21577;-45
2021/04/03 01:10:53;;;;;;;0.20;0.20;;;;;;;2.01;100.00;99948.88;1847443;76;28952;-45
2021/04/03 01:13:57;;;;;;;0.10;0.10;;;;;;;1.93;100.00;99959.48;1813264;78;21830;-45
2021/04/03 01:16:58;;;;;;;0.00;0.00;;;;;;;1.91;100.00;99958.89;1754673;81;21169;-45
2021/04/03 01:20:02;;;;;;;0.17;0.17;;;;;;;1.87;100.00;99967.14;1725965;81;21142;-46
2021/04/03 01:23:11;;;;;;;0.00;0.00;;;;;;;1.86;100.00;99969.56;1754651;81;21141;-45
2021/04/03 01:26:20;;;;;;;0.00;0.00;;;;;;;1.88;100.00;99974.16;1725264;81;21095;-45
2021/04/03 01:29:16;;;;;;;1.10;0.75;;;;;;;1.90;100.00;99969.36;1753239;81;21205;-45
2021/04/03 01:31:44;;;;;;;0.10;0.10;;;;;;;1.93;100.00;99968.91;1769059;80;21524;-44
2021/04/03 01:34:22;;;;;;;0.00;0.00;;;;;;;1.95;100.00;99972.17;1755909;80;21130;-44
2021/04/03 01:36:51;;;;;;;0.10;0.10;;;;;;;1.97;100.00;99967.91;1755422;80;21162;-46
2021/04/03 01:39:21;;;;;;;0.00;0.00;;;;;;;1.98;100.00;99967.69;1756116;80;21913;-46
2021/04/03 01:41:50;;;;;;;0.10;0.10;;;;;;;1.99;100.00;99967.97;1730507;80;21134;-46
2021/04/03 01:44:21;;;;;;;0.10;0.10;;;;;;;2.00;100.00;99971.47;1785979;80;21122;-46
2021/04/03 01:46:50;;;;;;;;;;;;;;;2.00;100.00;99974.98;1758457;80;21117;-45
2021/04/03 01:49:21;;;;;;;0.00;0.00;;;;;;;2.02;100.00;99974.23;1807624;78;20264;-45
2021/04/03 01:51:48;;;;;;;0.00;0.00;;;;;;;2.04;100.00;99977.52;1757417;80;21125;-45
2021/04/03 01:54:19;;;;;;;0.10;0.10;;;;;;;2.05;100.00;99973.78;1723715;81;21126;-45
2021/04/03 01:56:49;;;;;;;0.00;0.00;;;;;;;2.08;100.00;99977.34;1753340;81;21165;-45
2021/04/03 01:59:18;;;;;;;0.17;0.17;;;;;;;2.09;100.00;99975.47;1765358;80;21150;-45
2021/04/03 02:01:47;;;;;;;0.65;0.20;;;;;;;2.09;100.00;99973.58;1756330;80;21118;-45
2021/04/03 02:04:16;;;;;;;0.00;0.00;;;;;;;2.09;100.00;99972.77;1786081;80;20948;-44
2021/04/03 02:06:46;;;;;;;0.00;0.00;;;;;;;2.06;100.00;99964.63;1755710;80;21094;-44
2021/04/03 02:09:18;;;;;;;0.20;0.20;;;;;;;2.03;100.00;99973.69;1747517;81;21154;-45
2021/04/03 02:11:50;;;;;;;0.10;0.10;;;;;;;1.98;100.00;99976.27;1709769;81;21162;-45
2021/04/03 02:14:32;;;;;;;0.10;0.10;;;;;;;1.96;100.00;99972.48;1826874;76;29649;-45
2021/04/03 02:17:00;;;;;;;0.33;0.33;;;;;;;1.85;100.00;99971.94;1785324;80;21676;-46
2021/04/03 02:19:28;;;;;;;0.30;0.30;;;;;;;1.78;100.00;99969.38;1785789;80;21177;-46
2021/04/03 02:21:56;;;;;;;0.10;0.10;;;;;;;1.69;100.00;99972.11;1785836;80;21122;-44
2021/04/03 02:24:23;;;;;;;0.10;0.10;;;;;;;1.62;100.00;99980.83;1754836;80;21202;-46
2021/04/03 02:26:53;;;;;;;0.00;0.00;;;;;;;1.53;100.00;99987.06;1753258;81;21190;-46
2021/04/03 02:29:22;;;;;;;0.10;0.10;;;;;;;1.46;100.00;99987.72;1724332;81;21115;-50
2021/04/03 02:31:50;;;;;;;0.10;0.10;;;;;;;1.38;100.00;99980.77;1766884;80;21158;-49
2021/04/03 02:34:18;;;;;;;0.55;0.55;;;;;;;1.32;100.00;99984.39;1786040;80;21162;-49
2021/04/03 02:36:46;;;;;;;0.28;0.28;;;;;;;1.27;100.00;99990.45;1786335;80;21114;-49
2021/04/03 02:39:15;;;;;;;0.00;0.00;;;;;;;1.22;100.00;99984.94;1786072;80;21442;-50
2021/04/03 02:41:47;;;;;;;0.10;0.10;;;;;;;1.19;100.00;99986.75;1746039;81;21129;-49
2021/04/03 02:44:21;;;;;;;0.10;0.10;;;;;;;1.16;100.00;99984.50;1753201;81;21528;-49
2021/04/03 02:46:54;;;;;;;0.10;0.10;;;;;;;1.16;100.00;99989.06;1672130;84;21177;-49
2021/04/03 02:49:45;;;;;;;0.17;0.15;;;;;;;1.15;100.00;99992.28;1694316;84;21158;-49
2021/04/03 02:52:13;;;;;;;0.62;0.55;;;;;;;1.14;100.00;99982.59;1664650;84;21476;-49
2021/04/03 02:54:41;;;;;;;0.23;0.23;;;;;;;1.14;100.00;99976.36;1691240;83;21126;-49
2021/04/03 02:57:09;;;;;;;0.10;0.10;;;;;;;1.15;100.00;99981.52;1703840;84;21183;-49
2021/04/03 02:59:40;;;;;;;0.23;0.23;;;;;;;1.18;100.00;99978.37;1703949;82;21129;-49
2021/04/03 03:02:09;;;;;;;0.30;0.30;;;;;;;1.21;100.00;99977.09;1731864;82;21374;-49
2021/04/03 03:04:38;;;;;;;0.10;0.10;;;;;;;1.21;100.00;99981.97;1751179;81;21102;-49
2021/04/03 03:07:07;;;;;;;0.30;0.25;;;;;;;1.22;100.00;99987.63;1733229;82;21094;-50
2021/04/03 03:09:36;;;;;;;0.00;0.00;;;;;;;1.21;100.00;99985.16;1689602;84;21138;-49
2021/04/03 03:12:08;;;;;;;0.20;0.20;;;;;;;1.17;100.00;99990.20;1702435;84;21648;-50
2021/04/03 03:14:39;;;;;;;0.00;0.00;;;;;;;1.13;100.00;99993.56;1701591;83;21158;-49
2021/04/03 03:17:10;;;;;;;0.33;0.33;;;;;;;1.08;100.00;99988.86;1672511;84;21114;-49
2021/04/03 03:19:39;;;;;;;0.05;0.05;;;;;;;1.02;100.00;99993.83;1684352;82;21142;-49
2021/04/03 03:22:08;;;;;;;0.05;0.05;;;;;;;0.96;100.00;99985.30;1733310;82;21164;-49
2021/04/03 03:24:36;;;;;;;0.10;0.10;;;;;;;0.90;100.00;99987.58;1702362;82;21134;-49
2021/04/03 03:27:06;;;;;;;0.00;0.00;;;;;;;0.82;100.00;99992.22;1732553;82;21154;-49
2021/04/03 03:29:35;;;;;;;0.13;0.13;;;;;;;0.75;100.00;99984.75;1705231;82;21138;-50
2021/04/03 03:32:03;;;;;;;0.42;0.42;;;;;;;0.69;100.00;99985.63;1701693;84;21542;-49
2021/04/03 03:34:31;;;;;;;0.13;0.13;;;;;;;0.63;100.00;99989.24;1671683;84;21151;-49
2021/04/03 03:37:00;;;;;;;0.37;0.37;;;;;;;0.58;100.00;99995.82;1701767;84;21138;-49
2021/04/03 03:39:30;;;;;;;0.00;0.00;;;;;;;0.53;100.00;99999.70;1696076;82;21134;-49
2021/04/03 03:41:58;;;;;;;0.20;0.20;;;;;;;0.50;100.00;99994.78;1725862;81;21118;-49
2021/04/03 03:44:27;;;;;;;0.42;0.42;;;;;;;0.47;100.00;100007.31;1732371;82;21165;-49
2021/04/03 03:46:56;;;;;;;0.45;0.45;;;;;;;0.47;100.00;100011.34;1747610;81;21189;-49
2021/04/03 03:49:24;;;;;;;2.12;0.33;;;;;;;0.46;100.00;99998.95;1732241;81;21158;-50
2021/04/03 03:51:52;;;;;;;0.00;0.00;;;;;;;0.46;100.00;100005.15;1732457;82;21098;-49
2021/04/03 03:54:20;;;;;;;0.23;0.23;;;;;;;0.50;100.00;100012.27;1731813;82;21095;-49
2021/04/03 03:56:48;;;;;;;0.30;0.30;;;;;;;0.53;100.00;100007.24;1732796;82;21146;-50
2021/04/03 03:59:16;;;;;;;0.10;0.10;;;;;;;0.58;100.00;100006.58;1727829;81;21572;-49
2021/04/03 04:01:46;;;;;;;0.20;0.20;;;;;;;0.61;100.00;100012.31;1710971;82;21227;-50
2021/04/03 04:04:14;;;;;;;0.20;0.20;;;;;;;0.66;100.00;100008.95;1701858;84;21361;-49
2021/04/03 04:06:42;;;;;;;0.47;0.47;;;;;;;0.69;100.00;100007.16;1713385;82;21157;-49
2021/04/03 04:09:10;;;;;;;0.20;0.20;;;;;;;0.74;100.00;100003.79;1732553;82;21153;-49
2021/04/03 04:11:41;;;;;;;0.13;0.13;;;;;;;0.78;100.00;100000.42;1732599;82;21130;-50
2021/04/03 04:14:11;;;;;;;0.00;0.00;;;;;;;0.83;100.00;100002.44;1747599;81;21114;-49
2021/04/03 04:16:41;;;;;;;0.10;0.10;;;;;;;0.89;100.00;99998.02;1746811;81;21131;-49
2021/04/03 04:19:10;;;;;;;0.47;0.47;;;;;;;0.95;100.00;99997.94;1725054;81;21131;-49
2021/04/03 04:21:38;;;;;;;0.23;0.23;;;;;;;1.02;100.00;100004.59;1724889;82;21139;-50
2021/04/03 04:24:07;;;;;;;0.28;0.28;;;;;;;1.11;100.00;100015.31;1755084;81;21199;-51
2021/04/03 04:26:36;;;;;;;0.00;0.00;;;;;;;1.21;100.00;100006.19;1756490;81;21585;-49
2021/04/03 04:29:03;;;;;;;0.10;0.10;;;;;;;1.32;100.00;100017.23;1756460;81;21122;-50
2021/04/03 04:31:31;;;;;;;0.60;0.45;;;;;;;1.40;100.00;100009.63;1753989;81;21581;-50
2021/04/03 04:34:03;;;;;;;0.40;0.40;;;;;;;1.48;100.00;100013.36;1754211;81;21151;-49
2021/04/03 04:36:31;;;;;;;1.37;0.53;;;;;;;1.58;100.00;100006.03;1756455;81;21146;-50
2021/04/03 04:39:00;;;;;;;0.30;0.30;;;;;;;1.68;100.00;100004.13;1753347;81;21142;-49
2021/04/03 04:41:28;;;;;;;0.37;0.37;;;;;;;1.79;100.00;100003.34;1756283;81;21158;-49
2021/04/03 04:43:57;;;;;;;0.45;0.45;;;;;;;1.91;100.00;100000.66;1728058;81;21155;-50
2021/04/03 04:46:24;;;;;;;0.20;0.20;;;;;;;2.01;100.00;99999.55;1756251;81;21119;-49
2021/04/03 04:48:53;;;;;;;0.20;0.20;;;;;;;2.15;100.00;99999.61;1756140;80;21162;-50
2021/04/03 04:51:26;;;;;;;0.57;0.57;;;;;;;2.29;100.00;100000.17;1722714;81;21179;-50
2021/04/03 04:53:57;;;;;;;0.20;0.20;;;;;;;2.42;100.00;99998.28;1732129;81;21181;-45
2021/04/03 04:56:27;;;;;;;0.20;0.20;;;;;;;2.55;100.00;99999.40;1753872;81;21178;-46
2021/04/03 04:58:54;;;;;;;2.08;1.12;;;;;;;2.66;100.00;100000.42;1724429;83;21442;-50
2021/04/03 05:01:23;;;;;;;2.00;0.62;;;;;;;2.76;100.00;100005.48;1732822;82;21172;-50
2021/04/03 05:03:51;;;;;;;0.10;0.10;;;;;;;2.89;100.00;100003.04;1733786;82;21186;-50
2021/04/03 05:06:19;;;;;;;0.37;0.37;;;;;;;2.99;100.00;100007.31;1731468;82;21410;-50
2021/04/03 05:08:46;;;;;;;0.65;0.55;;;;;;;3.10;100.00;100006.16;1722958;83;21142;-50
2021/04/03 05:11:13;;;;;;;0.68;0.68;;;;;;;3.19;100.00;100001.48;1723118;83;21143;-50
2021/04/03 05:13:41;;;;;;;0.23;0.23;;;;;;;3.30;100.00;100008.42;1722884;82;21220;-50
2021/04/03 05:16:09;;;;;;;0.13;0.13;;;;;;;3.41;100.00;100008.37;1723533;83;21158;-49
2021/04/03 05:18:36;;;;;;;0.72;0.68;;;;;;;3.52;100.00;100002.61;1735250;81;21670;-50
2021/04/03 05:21:04;;;;;;;0.55;0.55;;;;;;;3.62;100.00;100005.48;1728065;83;21106;-49
2021/04/03 05:23:32;;;;;;;1.02;0.47;;;;;;;3.70;100.00;100001.55;1734736;81;21114;-49
2021/04/03 05:26:01;;;;;;;0.23;0.23;;;;;;;3.80;100.00;99999.55;1757984;81;21133;-49
2021/04/03 05:28:28;;;;;;;1.85;0.53;;;;;;;3.90;100.00;100003.77;1757740;81;21707;-49
2021/04/03 05:30:57;;;;;;;0.42;0.42;;;;;;;4.01;100.00;99999.36;1757972;81;21498;-50
2021/04/03 05:33:24;;;;;;;0.33;0.33;;;;;;;4.11;100.00;100000.05;1752643;81;21221;-51
2021/04/03 05:35:52;;;;;;;1.47;1.37;;;;;;;4.20;100.00;99999.34;1727829;82;21150;-51
2021/04/03 05:38:20;;;;;;;0.17;0.17;;;;;;;4.29;100.00;100001.92;1727423;83;21190;-51
2021/04/03 05:40:48;;;;;;;0.10;0.10;;;;;;;4.38;100.00;100010.45;1727650;83;21162;-52
2021/04/03 05:43:17;;;;;;;0.08;0.08;;;;;;;4.47;100.00;100008.92;1747951;81;21179;-51
2021/04/03 05:45:44;;;;;;;0.08;0.08;;;;;;;4.56;100.00;100012.03;1730788;81;21505;-52
2021/04/03 05:48:13;;;;;;;1.07;1.05;;;;;;;4.67;100.00;100011.62;1731036;81;21602;-52
2021/04/03 05:50:41;;;;;;;0.68;0.42;;;;;;;4.78;100.00;100018.00;1727218;81;21489;-52
2021/04/03 05:53:10;;;;;;;2.67;0.88;;;;;;;4.91;100.00;100025.73;1732256;80;21154;-51
2021/04/03 05:55:38;;;;;;;0.47;0.47;;;;;;;5.04;98.80;100025.34;1755878;81;21566;-52
2021/04/03 05:58:18;;;;;;;1.37;0.33;;;;;;;5.25;98.39;100020.98;1839769;76;23358;-49
2021/04/03 06:00:46;;;;;;;0.10;0.10;;;;;;;5.34;97.38;100020.82;1745124;81;21091;-49
2021/04/03 06:03:15;;;;;;;0.60;0.23;;;;;;;5.45;94.74;100019.56;1757560;80;21493;-49
2021/04/03 06:05:48;;;;;;;0.55;0.50;;;;;;;5.53;93.92;100021.27;1754314;79;21163;-49
2021/04/03 06:08:15;;;;;;;0.93;0.93;;;;;;;5.65;93.07;100021.66;1722626;81;21134;-49
2021/04/03 06:11:16;;;;;;;0.15;0.15;;;;;;;5.80;91.75;100023.14;1718148;83;21134;-49
2021/04/03 06:14:04;;;;;;;0.10;0.10;;;;;;;5.91;90.82;100033.01;1730667;82;21146;-49
2021/04/03 06:16:35;;;;;;;0.75;0.33;;;;;;;6.05;89.57;100030.69;1730849;81;21778;-49
2021/04/03 06:19:23;;;;;;;0.17;0.17;;;;;;;6.21;88.30;100037.06;1730806;81;21139;-50
2021/04/03 06:22:01;;;;;;;0.20;0.20;;;;;;;6.35;87.14;100047.72;1749187;81;21150;-49
2021/04/03 06:24:35;;;;;;;0.28;0.15;;;;;;;6.49;85.52;100048.64;1759460;81;21521;-49
2021/04/03 06:27:11;;;;;;;0.25;0.25;;;;;;;6.57;84.11;100047.59;1761033;81;21461;-50
2021/04/03 06:29:47;;;;;;;0.37;0.37;;;;;;;6.63;83.13;100050.63;1734957;81;21166;-49
2021/04/03 06:35:06;;;;;;;1.45;0.82;;;;;;;6.78;79.38;100060.76;1819504;76;22654;-50
2021/04/03 06:37:37;;;;;;;0.20;0.20;;;;;;;6.77;79.51;100063.17;1785601;80;21130;-49
2021/04/03 06:40:11;;;;;;;0.10;0.10;;;;;;;6.84;79.32;100064.30;1785417;80;21122;-49
2021/04/03 06:42:49;;;;;;;0.15;0.08;;;;;;;7.00;80.53;100051.63;1778729;80;21165;-49
2021/04/03 06:45:23;;;;;;;0.53;0.53;;;;;;;7.20;78.38;100058.50;1785673;78;21441;-49
2021/04/03 06:47:52;;;;;;;0.13;0.13;;;;;;;7.40;77.23;100062.37;1785661;80;21133;-49
2021/04/03 06:50:22;;;;;;;5.08;0.30;;;;;;;7.55;76.61;100056.96;1785784;78;21670;-49
2021/04/03 06:52:49;;;;;;;0.53;0.53;;;;;;;7.64;76.15;100058.59;1785690;80;21130;-49
2021/04/03 06:55:20;;;;;;;0.37;0.20;;;;;;;7.77;75.29;100060.00;1785857;78;21130;-49
2021/04/03 06:57:48;;;;;;;0.30;0.30;;;;;;;7.90;74.57;100066.25;1785005;80;21147;-51
2021/04/03 07:00:17;;;;;;;0.10;0.10;;;;;;;7.95;73.06;100068.98;1784768;80;21118;-51
2021/04/03 07:02:58;;;;;;;0.00;0.00;;;;;;;8.04;73.24;100073.34;1781802;80;21422;-50
2021/04/03 07:05:32;;;;;;;0.00;0.00;;;;;;;8.11;71.24;100067.91;1784562;80;21192;-51
2021/04/03 07:08:04;;;;;;;0.50;0.50;;;;;;;8.25;69.98;100082.31;1753573;80;21138;-50
2021/04/03 07:10:33;;;;;;;0.10;0.10;;;;;;;8.41;69.34;100078.54;1785879;80;21082;-48
2021/04/03 07:13:01;;;;;;;0.55;0.55;;;;;;;8.54;69.73;100074.43;1783129;80;21200;-50
2021/04/03 07:15:31;;;;;;;0.10;0.10;;;;;;;8.66;70.89;100074.95;1782968;80;21157;-48
2021/04/03 07:17:58;;;;;;;0.10;0.10;;;;;;;8.80;69.93;100074.66;1765142;80;21114;-49
2021/04/03 07:20:27;;;;;;;0.20;0.20;;;;;;;8.97;68.08;100082.48;1785720;80;21138;-49
2021/04/03 07:23:07;;;;;;;0.35;0.35;;;;;;;9.19;67.19;100082.69;1785128;80;21110;-49
2021/04/03 07:25:39;;;;;;;0.10;0.10;;;;;;;9.39;65.80;100081.77;1785800;80;21098;-49
2021/04/03 07:28:07;;;;;;;0.08;0.08;;;;;;;9.58;63.68;100086.05;1765299;79;21158;-49
2021/04/03 07:30:41;;;;;;;1.65;0.68;;;;;;;9.62;62.77;100082.48;1755340;80;21149;-49
2021/04/03 07:33:20;;;;;;;;;;;;;;;9.68;62.14;100092.25;1783676;80;21569;-49
2021/04/03 07:35:54;;;;;;;3.83;0.68;;;;;;;9.74;61.43;100091.66;1774215;80;20256;-49
2021/04/03 07:38:35;;;;;;;0.20;0.10;;;;;;;9.86;61.94;100093.49;1793643;78;21146;-49
2021/04/03 07:41:17;;;;;;;0.00;0.00;;;;;;;10.01;60.61;100089.03;1759653;80;21111;-49
2021/04/03 07:43:47;;;;;;;0.15;0.13;;;;;;;10.12;58.74;100086.50;1766062;80;21206;-50
2021/04/03 07:46:37;;;;;;;0.00;0.00;;;;;;;10.15;56.69;100094.12;1758935;80;21573;-49
2021/04/03 07:49:04;;;;;;;0.00;0.00;;;;;;;10.02;57.33;100090.68;1775066;78;21165;-49
2021/04/03 07:51:41;;;;;;;0.00;0.00;;;;;;;9.90;58.68;100102.75;1770072;80;21102;-49
2021/04/03 07:54:17;;;;;;;0.40;0.40;;;;;;;9.98;60.43;100096.43;1785358;78;21492;-49
2021/04/03 07:56:51;;;;;;;0.00;0.00;;;;;;;10.23;59.70;100101.69;1765988;80;21597;-49
2021/04/03 07:59:47;;;;;;;0.20;0.20;;;;;;;10.49;58.15;100102.88;1785183;79;20987;-49
2021/04/03 08:02:20;;;;;;;0.10;0.10;;;;;;;10.66;56.11;100107.36;1785296;80;21454;-48
2021/04/03 08:04:48;;;;;;;0.10;0.10;;;;;;;10.73;56.12;100102.38;1784901;79;21169;-49
2021/04/03 08:07:19;;;;;;;3.30;0.45;;;;;;;10.80;53.79;100108.04;1784465;80;21118;-50
2021/04/03 08:09:47;;;;;;;0.20;0.20;;;;;;;10.78;53.24;100099.31;1783851;80;21138;-49
2021/04/03 08:12:15;;;;;;;0.00;0.00;;;;;;;10.80;52.67;100105.31;1784338;80;21123;-49
2021/04/03 08:14:44;;;;;;;0.00;0.00;;;;;;;10.70;50.08;100100.20;1785091;78;21594;-49
2021/04/03 08:17:20;;;;;;;0.00;0.00;;;;;;;10.57;50.29;100098.16;1755305;80;21167;-49
2021/04/03 08:19:49;;;;;;;0.10;0.10;;;;;;;10.41;52.50;100102.12;1778461;80;21148;-49
2021/04/03 08:22:18;;;;;;;0.42;0.42;;;;;;;10.28;50.09;100109.87;1751334;80;21570;-50
2021/04/03 08:24:57;;;;;;;0.08;0.08;;;;;;;10.16;50.64;100112.12;1783108;78;21130;-49
2021/04/03 08:27:34;;;;;;;0.10;0.10;;;;;;;10.14;50.42;100104.78;1782559;79;21127;-50
2021/04/03 08:30:20;;;;;;;0.00;0.00;;;;;;;10.24;52.63;100105.25;1760548;79;21090;-49
2021/04/03 08:32:35;;;;;;;0.10;0.10;;;;;;;10.53;52.05;100112.12;1747694;79;21385;-48
2021/04/03 08:35:05;;;;;;;0.10;0.10;;;;;;;10.80;49.70;100107.48;1762015;80;21702;-49
2021/04/03 08:37:32;;;;;;;0.10;0.10;;;;;;;10.87;47.83;100116.72;1759692;81;21165;-49
2021/04/03 08:40:00;;;;;;;0.20;0.20;;;;;;;10.74;46.39;100118.22;1745763;80;21515;-49
2021/04/03 08:42:27;;;;;;;0.10;0.10;;;;;;;10.68;46.70;100125.66;1762041;80;21102;-49
2021/04/03 08:44:55;;;;;;;0.00;0.00;;;;;;;10.85;48.70;100116.19;1790043;78;21107;-48
2021/04/03 08:47:23;;;;;;;0.00;0.00;;;;;;;11.14;46.41;100104.65;1786130;80;21671;-49
2021/04/03 08:49:51;;;;;;;0.03;0.03;;;;;;;11.34;46.22;100101.41;1790241;78;21584;-49
2021/04/03 08:52:18;;;;;;;0.00;0.00;;;;;;;11.45;45.79;100115.23;1768106;80;21091;-49
2021/04/03 08:54:46;;;;;;;0.00;0.00;;;;;;;11.45;43.97;100114.39;1790982;78;21545;-49
2021/04/03 08:57:29;;;;;;;0.00;0.00;;;;;;;11.48;43.29;100113.27;1744051;81;21134;-49
2021/04/03 09:00:01;;;;;;;0.42;0.20;;;;;;;11.54;42.79;100126.33;1760020;80;22128;-49
2021/04/03 09:02:31;;;;;;;0.00;0.00;;;;;;;11.61;43.33;100130.33;1761280;80;21035;-50
2021/04/03 09:05:04;;;;;;;0.17;0.13;;;;;;;11.65;44.88;100132.47;1742074;80;21172;-49
2021/04/03 09:07:32;;;;;;;0.35;0.35;;;;;;;11.61;43.22;100144.57;1791283;80;20965;-49
2021/04/03 09:10:15;;;;;;;0.25;0.13;;;;;;;11.54;43.75;100149.02;1790784;78;21127;-50
2021/04/03 09:12:44;;;;;;;0.00;0.00;;;;;;;11.65;42.80;100140.67;1789640;80;21087;-50
2021/04/03 09:15:14;;;;;;;0.00;0.00;;;;;;;11.79;44.40;100138.84;1763831;80;21145;-50
2021/04/03 09:17:55;;;;;;;0.00;0.00;;;;;;;11.91;41.61;100142.00;1788066;80;21125;-50
2021/04/03 09:20:28;;;;;;;0.10;0.10;;;;;;;11.99;42.52;100136.41;1787206;80;21109;-49
2021/04/03 09:23:06;;;;;;;0.10;0.10;;;;;;;12.17;40.93;100140.27;1758982;79;21565;-49
2021/04/03 09:25:34;;;;;;;0.00;0.00;;;;;;;12.33;39.43;100137.53;1766687;80;21133;-50
2021/04/03 09:28:10;;;;;;;0.00;0.00;;;;;;;12.41;39.49;100139.61;1790086;80;20995;-50
2021/04/03 09:30:45;;;;;;;0.00;0.00;;;;;;;12.44;38.91;100128.05;1790893;79;21557;-48
2021/04/03 09:33:25;;;;;;;0.35;0.35;;;;;;;12.24;38.50;100125.64;1763374;80;21174;-49
2021/04/03 09:36:11;;;;;;;0.10;0.10;;;;;;;12.01;40.52;100132.26;1779476;80;21113;-49
2021/04/03 09:38:39;;;;;;;0.15;0.15;;;;;;;11.94;41.49;100125.00;1785962;79;21190;-49
2021/04/03 09:41:24;;;;;;;0.13;0.10;;;;;;;11.95;41.10;100121.70;1786164;80;21150;-50
2021/04/03 09:43:53;;;;;;;0.05;0.05;;;;;;;12.04;42.22;100124.84;1780962;80;21118;-50
2021/04/03 09:46:21;;;;;;;0.15;0.15;;;;;;;12.29;41.27;100130.20;1784549;80;21170;-51
2021/04/03 09:48:50;;;;;;;0.10;0.10;;;;;;;12.42;40.44;100129.45;1781364;80;21621;-50
2021/04/03 09:51:18;;;;;;;0.10;0.10;;;;;;;12.43;41.93;100128.33;1757879;80;21179;-50
2021/04/03 09:53:47;;;;;;;0.00;0.00;;;;;;;12.37;41.80;100127.61;1785739;78;21134;-49
2021/04/03 09:56:16;;;;;;;0.10;0.10;;;;;;;12.35;41.70;100134.50;1786510;79;21141;-51
2021/04/03 09:58:45;;;;;;;0.00;0.00;;;;;;;12.33;40.97;100138.89;1786710;80;21150;-49
2021/04/03 10:01:14;;;;;;;0.15;0.15;;;;;;;12.42;39.66;100145.89;1786474;80;21160;-48
2021/04/03 10:03:43;;;;;;;0.05;0.05;;;;;;;12.53;41.08;100150.64;1786433;80;21184;-53
2021/04/03 10:06:11;;;;;;;0.03;0.03;;;;;;;12.68;39.10;100128.45;1781964;80;21169;-51
2021/04/03 10:08:39;;;;;;;0.62;0.40;;;;;;;12.86;39.91;100137.75;1786257;80;21142;-50
2021/04/03 10:11:07;;;;;;;0.10;0.10;;;;;;;12.90;38.64;100129.95;1785321;80;21100;-47
2021/04/03 10:13:35;;;;;;;0.00;0.00;;;;;;;12.67;37.88;100130.38;1782212;79;21193;-50
2021/04/03 10:16:04;;;;;;;0.17;0.05;;;;;;;12.34;39.54;100138.33;1779307;80;21122;-49
2021/04/03 10:18:33;;;;;;;0.00;0.00;;;;;;;12.13;41.00;100139.22;1785135;78;21138;-49
2021/04/03 10:21:02;;;;;;;0.30;0.20;;;;;;;12.11;38.65;100135.97;1780363;80;21122;-49
2021/04/03 10:23:31;;;;;;;0.00;0.00;;;;;;;12.07;40.84;100127.55;1786466;78;21645;-49
2021/04/03 10:25:59;;;;;;;0.00;0.00;;;;;;;12.00;41.24;100130.64;1785191;78;21869;-50
2021/04/03 10:28:26;;;;;;;0.00;0.00;;;;;;;12.05;42.86;100125.09;1786888;80;21221;-50
2021/04/03 10:30:54;;;;;;;0.80;0.40;;;;;;;12.13;40.65;100123.59;1785819;80;21611;-50
2021/04/03 10:33:22;;;;;;;0.35;0.28;;;;;;;12.28;38.59;100119.80;1785291;80;21326;-49
2021/04/03 10:35:50;;;;;;;0.42;0.42;;;;;;;12.40;39.08;100121.52;1785296;80;20995;-49
2021/04/03 10:38:19;;;;;;;0.00;0.00;;;;;;;12.36;37.24;100115.56;1783220;80;21208;-49
2021/04/03 10:40:47;;;;;;;0.45;0.45;;;;;;;12.30;37.10;100124.99;1783713;80;21602;-49
2021/04/03 10:43:15;;;;;;;0.00;0.00;;;;;;;12.17;37.84;100119.16;1753628;80;21165;-56
2021/04/03 10:45:42;;;;;;;0.45;0.45;;;;;;;12.10;37.49;100127.50;1757300;80;21170;-56
2021/04/03 10:48:10;;;;;;;0.00;0.00;;;;;;;11.96;36.34;100124.12;1784512;80;21157;-56
2021/04/03 10:50:40;;;;;;;0.20;0.20;;;;;;;11.96;35.46;100120.58;1784987;80;21114;-55
2021/04/03 10:53:08;;;;;;;0.10;0.10;;;;;;;11.95;36.70;100116.22;1784943;80;21142;-55
2021/04/03 10:55:37;;;;;;;0.00;0.00;;;;;;;11.97;38.62;100107.97;1782427;80;21188;-56
2021/04/03 10:58:05;;;;;;;0.10;0.10;;;;;;;12.20;37.46;100108.16;1779400;80;21094;-56
2021/04/03 11:00:33;;;;;;;0.35;0.28;;;;;;;12.39;34.91;100117.17;1784657;80;21150;-56
2021/04/03 11:03:02;;;;;;;0.00;0.00;;;;;;;12.59;34.46;100117.38;1784875;80;21123;-56
2021/04/03 11:05:29;;;;;;;0.15;0.15;;;;;;;12.82;34.91;100127.11;1787922;79;21198;-56
2021/04/03 11:07:57;;;;;;;0.00;0.00;;;;;;;13.07;34.86;100121.70;1790148;80;21626;-55
2021/04/03 11:10:25;;;;;;;0.00;0.00;;;;;;;13.21;33.42;100125.27;1791103;80;21141;-56
2021/04/03 11:12:52;;;;;;;0.10;0.10;;;;;;;13.22;34.26;100122.77;1775434;80;21137;-56
2021/04/03 11:15:22;;;;;;;0.53;0.53;;;;;;;13.34;33.55;100117.61;1784620;78;21154;-56
2021/04/03 11:17:52;;;;;;;0.10;0.10;;;;;;;13.23;33.29;100113.44;1784925;80;21129;-56
2021/04/03 11:20:20;;;;;;;0.10;0.10;;;;;;;13.10;33.78;100119.72;1785094;79;21169;-56
2021/04/03 11:22:47;;;;;;;0.20;0.20;;;;;;;12.91;34.38;100117.89;1785328;80;21122;-56
2021/04/03 11:25:15;;;;;;;0.00;0.00;;;;;;;12.95;34.02;100115.91;1785489;80;21098;-56
2021/04/03 11:27:42;;;;;;;2.87;0.62;;;;;;;12.99;32.70;100119.11;1785487;80;21571;-56
2021/04/03 11:30:13;;;;;;;0.10;0.10;;;;;;;12.91;34.86;100124.74;1784558;78;21114;-56
2021/04/03 11:32:48;;;;;;;1.87;1.32;;;;;;;12.94;34.99;100123.89;1776260;80;21561;-56
2021/04/03 11:35:20;;;;;;;1.17;1.10;;;;;;;12.95;33.11;100118.64;1788342;79;21544;-56
2021/04/03 11:37:48;;;;;;;0.03;0.03;;;;;;;12.97;34.32;100123.27;1794463;79;21169;-56
2021/04/03 11:40:16;;;;;;;0.20;0.20;;;;;;;13.14;32.88;100124.86;1794036;79;21501;-56
2021/04/03 11:42:46;;;;;;;0.00;0.00;;;;;;;13.36;32.56;100122.00;1793969;79;21117;-56
2021/04/03 11:45:16;;;;;;;0.00;0.00;;;;;;;13.58;32.88;100111.09;1794175;79;21149;-56
2021/04/03 11:47:43;;;;;;;0.78;0.75;;;;;;;13.87;32.62;100105.77;1794285;79;21086;-56
2021/04/03 11:50:12;;;;;;;0.55;0.20;;;;;;;14.07;32.58;100101.73;1794517;78;21137;-57
2021/04/03 11:52:41;;;;;;;0.10;0.10;;;;;;;14.31;33.03;100100.06;1794500;79;21796;-56
2021/04/03 11:55:09;;;;;;;0.10;0.10;;;;;;;14.56;32.79;100089.02;1794409;78;21122;-57